createdAt,value
2023-02-23T00:03:16.319Z,15.33
2023-02-23T00:07:20.250Z,16.13
2023-02-23T00:11:22.158Z,17.90
2023-02-23T00:15:26.871Z,15.40
2023-02-23T00:19:28.852Z,18.57
2023-02-23T00:23:30.884Z,14.23
2023-02-23T00:27:36.736Z,15.77
2023-02-23T00:31:38.769Z,16.67
2023-02-23T00:35:40.741Z,15.47
2023-02-23T00:39:42.647Z,17.97
2023-02-23T00:43:50.298Z,15.80
2023-02-23T00:47:52.134Z,16.17
2023-02-23T00:51:54.008Z,14.80
2023-02-23T00:55:56.484Z,14.57
2023-02-23T00:59:58.380Z,15.03
2023-02-23T01:04:01.422Z,13.93
2023-02-23T01:08:09.325Z,14.77
2023-02-23T01:12:11.148Z,14.77
2023-02-23T01:16:17.189Z,14.73
2023-02-23T01:20:22.043Z,15.67
2023-02-23T01:24:23.810Z,15.00
2023-02-23T01:28:25.720Z,15.80
2023-02-23T01:32:27.648Z,13.97
2023-02-23T01:36:29.825Z,17.27
2023-02-23T01:40:32.102Z,17.97
2023-02-23T01:44:54.130Z,15.93
2023-02-23T01:48:56.837Z,15.23
2023-02-23T01:52:59.430Z,15.63
2023-02-23T01:57:02.696Z,15.67
2023-02-23T02:01:04.766Z,15.87
2023-02-23T02:05:12.373Z,16.13
2023-02-23T02:09:19.624Z,17.40
2023-02-23T02:13:23.039Z,16.30
2023-02-23T02:17:54.595Z,17.40
2023-02-23T02:22:14.489Z,16.63
2023-02-23T02:26:40.986Z,16.57
2023-02-23T02:31:09.419Z,16.47
2023-02-23T02:35:41.314Z,15.97
2023-02-23T02:40:16.061Z,16.50
2023-02-23T02:44:52.460Z,17.40
2023-02-23T02:49:36.376Z,17.97
2023-02-23T02:54:10.404Z,17.70
2023-02-23T02:58:12.579Z,17.77
2023-02-23T03:02:35.816Z,16.33
2023-02-23T03:07:21.118Z,17.90
2023-02-23T03:11:50.114Z,17.40
2023-02-23T03:16:49.084Z,16.67
2023-02-23T03:21:19.371Z,19.87
2023-02-23T03:26:01.078Z,17.00
2023-02-23T03:30:55.181Z,17.00
2023-02-23T03:35:33.050Z,19.33
2023-02-23T03:40:01.811Z,18.13
2023-02-23T03:44:36.419Z,18.63
2023-02-23T03:48:56.442Z,17.90
2023-02-23T03:53:17.682Z,18.43
2023-02-23T03:57:39.577Z,15.27
2023-02-23T04:02:00.064Z,16.83
2023-02-23T04:06:20.843Z,17.47
2023-02-23T04:10:41.434Z,15.57
2023-02-23T04:14:54.381Z,16.50
2023-02-23T04:18:56.293Z,15.00
2023-02-23T04:22:58.142Z,18.07
2023-02-23T04:27:01.568Z,17.13
2023-02-23T04:31:03.520Z,17.87
2023-02-23T04:35:05.842Z,18.30
2023-02-23T04:39:07.765Z,18.53
2023-02-23T04:43:13.341Z,19.13
2023-02-23T04:47:15.655Z,18.60
2023-02-23T04:51:17.611Z,16.53
2023-02-23T04:55:22.182Z,16.30
2023-02-23T04:59:24.143Z,18.73
2023-02-23T05:03:26.002Z,16.53
2023-02-23T05:07:27.792Z,18.77
2023-02-23T05:11:30.180Z,17.00
2023-02-23T05:15:32.064Z,17.73
2023-02-23T05:19:34.307Z,19.47
2023-02-23T05:23:36.709Z,19.10
2023-02-23T05:27:39.179Z,20.20
2023-02-23T05:31:41.169Z,19.10
2023-02-23T05:35:43.101Z,21.33
2023-02-23T05:39:44.933Z,18.47
2023-02-23T05:43:47.404Z,19.77
2023-02-23T05:47:50.018Z,18.67
2023-02-23T05:51:51.834Z,17.00
2023-02-23T05:55:53.655Z,18.13
2023-02-23T05:59:55.461Z,19.93
2023-02-23T06:03:57.532Z,22.67
2023-02-23T06:07:59.313Z,21.53
2023-02-23T06:12:01.276Z,21.17
2023-02-23T06:16:03.715Z,22.67
2023-02-23T06:20:07.191Z,21.23
2023-02-23T06:24:09.552Z,21.70
2023-02-23T06:28:11.384Z,22.00
2023-02-23T06:32:13.319Z,19.63
2023-02-23T06:36:17.720Z,21.83
2023-02-23T06:40:20.161Z,20.33
2023-02-23T06:44:22.739Z,20.77
2023-02-23T06:48:24.637Z,22.93
2023-02-23T06:52:26.586Z,23.37
2023-02-23T06:56:28.619Z,22.80
2023-02-23T07:00:30.721Z,21.27
2023-02-23T07:04:33.268Z,20.83
2023-02-23T07:08:36.296Z,22.40
2023-02-23T07:12:38.178Z,21.83
2023-02-23T07:16:40.231Z,22.10
2023-02-23T07:20:42.115Z,20.47
2023-02-23T07:24:43.897Z,23.87
2023-02-23T07:28:45.852Z,21.90
2023-02-23T07:32:47.732Z,22.77
2023-02-23T07:36:49.579Z,22.97
2023-02-23T07:40:51.663Z,22.87
2023-02-23T07:44:53.541Z,22.63
2023-02-23T07:48:55.773Z,23.40
2023-02-23T07:52:57.998Z,24.07
2023-02-23T07:57:00.320Z,23.17
2023-02-23T08:01:02.993Z,21.53
2023-02-23T08:05:05.771Z,20.50
2023-02-23T08:09:07.856Z,23.50
2023-02-23T08:13:10.465Z,23.97
2023-02-23T08:17:12.729Z,22.43
2023-02-23T08:21:14.623Z,22.87
2023-02-23T08:25:17.582Z,24.07
2023-02-23T08:29:20.878Z,22.87
2023-02-23T08:33:25.277Z,23.77
2023-02-23T08:37:29.481Z,25.53
2023-02-23T08:41:32.317Z,23.50
2023-02-23T08:45:34.059Z,23.70
2023-02-23T08:49:35.892Z,23.90
2023-02-23T08:53:37.876Z,21.40
2023-02-23T08:57:39.819Z,23.43
2023-02-23T09:01:43.200Z,20.10
2023-02-23T09:05:45.118Z,23.00
2023-02-23T09:09:46.938Z,24.17
2023-02-23T09:13:48.878Z,22.47
2023-02-23T09:17:50.852Z,22.97
2023-02-23T09:21:52.642Z,22.00
2023-02-23T09:25:54.486Z,23.23
2023-02-23T09:29:56.449Z,22.73
2023-02-23T09:34:00.341Z,19.77
2023-02-23T09:38:03.780Z,21.40
2023-02-23T09:42:19.745Z,21.20
2023-02-23T09:47:12.135Z,19.87
2023-02-23T09:51:58.832Z,20.67
2023-02-23T09:56:00.932Z,21.13
2023-02-23T10:00:05.916Z,19.30
2023-02-23T10:04:27.408Z,18.77
2023-02-23T10:08:46.149Z,18.60
2023-02-23T10:13:13.656Z,18.90
2023-02-23T10:17:40.469Z,19.13
2023-02-23T10:21:46.075Z,19.53
2023-02-23T10:25:49.653Z,19.10
2023-02-23T10:29:56.613Z,20.63
2023-02-23T10:34:01.875Z,19.93
2023-02-23T10:38:08.815Z,19.57
2023-02-23T10:42:26.493Z,17.53
2023-02-23T10:46:37.141Z,18.10
2023-02-23T10:50:41.278Z,18.60
2023-02-23T10:54:49.946Z,17.47
2023-02-23T10:58:59.155Z,16.07
2023-02-23T11:03:07.718Z,15.87
2023-02-23T11:07:18.572Z,16.07
2023-02-23T11:11:25.467Z,14.60
2023-02-23T11:15:49.429Z,19.20
2023-02-23T11:20:19.117Z,15.33
2023-02-23T11:24:30.915Z,16.57
2023-02-23T11:28:38.028Z,13.63
2023-02-23T11:32:59.855Z,15.80
2023-02-23T11:37:19.172Z,17.47
2023-02-23T11:41:27.086Z,16.27
2023-02-23T11:45:35.229Z,16.93
2023-02-23T11:49:37.311Z,14.57
2023-02-23T11:53:51.672Z,16.13
2023-02-23T11:57:56.892Z,16.47
2023-02-23T12:02:21.101Z,14.53
2023-02-23T12:06:33.652Z,14.93
2023-02-23T12:10:49.599Z,15.30
2023-02-23T12:15:05.191Z,13.90
2023-02-23T12:19:29.113Z,16.27
2023-02-23T12:23:35.849Z,14.53
2023-02-23T12:27:45.734Z,17.60
2023-02-23T12:32:00.789Z,15.10
2023-02-23T12:36:16.998Z,14.13
2023-02-23T12:40:28.143Z,14.13
2023-02-23T12:44:43.705Z,15.27
2023-02-23T12:48:53.708Z,16.53
2023-02-23T12:53:33.264Z,16.30
2023-02-23T12:58:03.928Z,15.13
2023-02-23T13:02:13.446Z,14.40
2023-02-23T13:06:30.477Z,14.93
2023-02-23T13:11:13.663Z,11.97
2023-02-23T13:15:57.581Z,12.77
2023-02-23T13:20:27.834Z,12.27
2023-02-23T13:24:40.749Z,12.43
2023-02-23T13:29:09.784Z,15.00
2023-02-23T13:33:34.908Z,14.87
2023-02-23T13:37:49.019Z,13.50
2023-02-23T13:42:09.795Z,15.60
2023-02-23T13:47:16.477Z,13.97
2023-02-23T13:51:37.170Z,12.77
2023-02-23T13:55:51.291Z,13.67
2023-02-23T13:59:53.540Z,14.57
2023-02-23T14:03:58.639Z,15.17
2023-02-23T14:08:03.004Z,14.30
2023-02-23T14:12:10.788Z,13.93
2023-02-23T14:16:20.058Z,13.67
2023-02-23T14:20:38.712Z,12.57
2023-02-23T14:24:40.627Z,13.00
2023-02-23T14:29:22.384Z,11.67
2023-02-23T14:33:43.152Z,13.13
2023-02-23T14:37:55.087Z,15.07
2023-02-23T14:41:59.284Z,15.53
2023-02-23T14:46:02.056Z,15.57
2023-02-23T14:50:04.204Z,17.63
2023-02-23T14:54:32.654Z,19.70
2023-02-23T14:58:35.200Z,19.77
2023-02-23T15:02:45.841Z,21.07
2023-02-23T15:07:00.106Z,22.17
2023-02-23T15:11:13.238Z,20.90
2023-02-23T15:15:20.931Z,22.70
2023-02-23T15:19:34.881Z,21.00
2023-02-23T15:23:39.451Z,24.23
2023-02-23T15:27:47.688Z,19.90
2023-02-23T15:31:54.136Z,21.87
2023-02-23T15:36:16.117Z,23.13
2023-02-23T15:40:23.452Z,23.37
2023-02-23T15:44:32.231Z,23.60
2023-02-23T15:48:48.462Z,24.13
2023-02-23T15:52:52.063Z,26.40
2023-02-23T15:57:02.242Z,24.37
2023-02-23T16:01:15.774Z,25.27
2023-02-23T16:05:22.696Z,24.37
2023-02-23T16:09:27.873Z,23.40
2023-02-23T16:13:30.414Z,25.80
2023-02-23T16:17:43.766Z,25.97
2023-02-23T16:21:56.739Z,24.20
2023-02-23T16:26:12.170Z,27.60
2023-02-23T16:30:32.777Z,27.07
2023-02-23T16:34:51.865Z,23.30
2023-02-23T16:39:10.203Z,29.47
2023-02-23T16:43:22.175Z,27.70
2023-02-23T16:47:24.272Z,30.40
2023-02-23T16:51:30.289Z,30.00
2023-02-23T16:55:37.501Z,30.97
2023-02-23T16:59:39.385Z,28.73
2023-02-23T17:03:52.438Z,29.27
2023-02-23T17:07:54.944Z,26.33
2023-02-23T17:11:57.932Z,27.67
2023-02-23T17:16:03.114Z,32.17
2023-02-23T17:20:12.610Z,26.63
2023-02-23T17:24:14.674Z,28.37
2023-02-23T17:28:16.936Z,29.90
2023-02-23T17:32:22.224Z,28.60
2023-02-23T17:36:24.434Z,27.83
2023-02-23T17:40:28.581Z,28.67
2023-02-23T17:44:31.154Z,30.83
2023-02-23T17:48:35.614Z,32.30
2023-02-23T17:52:37.534Z,36.70
2023-02-23T17:56:39.448Z,31.63
2023-02-23T18:00:41.269Z,32.27
2023-02-23T18:04:43.674Z,32.27
2023-02-23T18:08:45.805Z,31.43
2023-02-23T18:12:47.649Z,34.77
2023-02-23T18:16:49.599Z,35.43
2023-02-23T18:20:55.889Z,38.50
2023-02-23T18:24:58.222Z,43.03
2023-02-23T18:29:00.179Z,46.63
2023-02-23T18:33:02.332Z,41.47
2023-02-23T18:37:06.611Z,41.20
2023-02-23T18:41:08.620Z,45.63
2023-02-23T18:45:11.028Z,43.90
2023-02-23T18:49:17.562Z,49.17
2023-02-23T18:53:19.346Z,44.63
2023-02-23T18:57:21.713Z,46.90
2023-02-23T19:01:33.306Z,41.20
2023-02-23T19:05:53.664Z,46.37
2023-02-23T19:09:55.683Z,44.00
2023-02-23T19:14:04.692Z,50.37
2023-02-23T19:18:08.969Z,43.13
2023-02-23T19:22:10.941Z,52.33
2023-02-23T19:26:12.780Z,45.00
2023-02-23T19:30:14.985Z,43.33
2023-02-23T19:34:16.994Z,46.07
2023-02-23T19:38:18.867Z,48.57
2023-02-23T19:42:20.930Z,46.80
2023-02-23T19:46:27.639Z,44.70
2023-02-23T19:50:32.801Z,36.47
2023-02-23T19:54:37.971Z,42.83
2023-02-23T19:58:44.621Z,38.83
2023-02-23T20:02:54.601Z,35.57
2023-02-23T20:06:56.635Z,36.53
2023-02-23T20:10:59.799Z,37.33
2023-02-23T20:15:02.153Z,35.70
2023-02-23T20:19:06.501Z,33.77
2023-02-23T20:23:08.834Z,39.73
2023-02-23T20:27:10.892Z,33.47
2023-02-23T20:31:18.804Z,38.40
2023-02-23T20:35:21.115Z,33.37
2023-02-23T20:39:24.354Z,39.07
2023-02-23T20:43:26.240Z,33.33
2023-02-23T20:47:28.162Z,33.77
2023-02-23T20:51:30.421Z,32.17
2023-02-23T20:55:32.605Z,33.97
2023-02-23T20:59:38.644Z,32.63
2023-02-23T21:03:40.579Z,33.03
2023-02-23T21:07:45.015Z,36.37
2023-02-23T21:11:48.010Z,35.30
2023-02-23T21:15:58.630Z,37.73
2023-02-23T21:20:01.470Z,34.80
2023-02-23T21:24:03.595Z,35.00
2023-02-23T21:28:05.384Z,36.57
2023-02-23T21:32:09.061Z,35.73
2023-02-23T21:36:11.480Z,36.20
2023-02-23T21:40:16.641Z,34.33
2023-02-23T21:44:18.493Z,35.53
2023-02-23T21:48:22.682Z,45.20
2023-02-23T21:52:24.433Z,52.07
2023-02-23T21:56:27.130Z,57.20
2023-02-23T22:00:30.802Z,60.93
2023-02-23T22:04:32.749Z,62.73
2023-02-23T22:08:36.369Z,59.53
2023-02-23T22:12:38.194Z,62.23
2023-02-23T22:16:43.551Z,69.00
2023-02-23T22:20:45.954Z,65.20
2023-02-23T22:24:48.974Z,69.83
2023-02-23T22:28:50.738Z,70.77
2023-02-23T22:32:52.755Z,73.43
2023-02-23T22:36:54.627Z,70.13
2023-02-23T22:40:56.531Z,71.43
2023-02-23T22:44:58.337Z,67.97
2023-02-23T22:49:00.182Z,59.67
2023-02-23T22:53:03.098Z,59.60
2023-02-23T22:57:05.465Z,53.43
2023-02-23T23:01:09.774Z,50.37
2023-02-23T23:05:13.693Z,49.90
2023-02-23T23:09:21.064Z,50.13
2023-02-23T23:13:23.618Z,51.33
2023-02-23T23:17:26.060Z,51.63
2023-02-23T23:21:28.458Z,48.17
2023-02-23T23:25:30.498Z,52.17
2023-02-23T23:29:32.622Z,50.53
2023-02-23T23:33:34.587Z,49.97
2023-02-23T23:37:39.777Z,58.43
2023-02-23T23:41:43.090Z,60.33
2023-02-23T23:45:45.766Z,65.83
2023-02-23T23:49:47.662Z,55.60
2023-02-23T23:53:51.752Z,52.13
2023-02-23T23:57:53.628Z,50.67
